sensor_id;sensor_type;location;lat;lon;timestamp;P1;durP1;ratioP1;P2;durP2;ratioP2
31798;SDS011;18374;51.136;3.502;2023-08-08T00:00:04;11.15;;;3.17;;
31798;SDS011;18374;51.136;3.502;2023-08-08T00:02:35;12.30;;;2.88;;
31798;SDS011;18374;51.136;3.502;2023-08-08T00:05:04;14.25;;;2.97;;
31798;SDS011;18374;51.136;3.502;2023-08-08T00:07:33;14.82;;;2.85;;
31798;SDS011;18374;51.136;3.502;2023-08-08T00:10:02;15.65;;;3.55;;
31798;SDS011;18374;51.136;3.502;2023-08-08T00:12:32;12.65;;;3.15;;
31798;SDS011;18374;51.136;3.502;2023-08-08T00:15:01;9.90;;;2.78;;
31798;SDS011;18374;51.136;3.502;2023-08-08T00:17:30;8.57;;;2.70;;
31798;SDS011;18374;51.136;3.502;2023-08-08T00:19:59;11.90;;;2.72;;
31798;SDS011;18374;51.136;3.502;2023-08-08T00:22:28;16.40;;;3.40;;
31798;SDS011;18374;51.136;3.502;2023-08-08T00:24:57;16.45;;;2.90;;
31798;SDS011;18374;51.136;3.502;2023-08-08T00:27:26;13.05;;;3.10;;
31798;SDS011;18374;51.136;3.502;2023-08-08T00:29:55;12.38;;;2.70;;
31798;SDS011;18374;51.136;3.502;2023-08-08T00:32:24;13.77;;;2.90;;
31798;SDS011;18374;51.136;3.502;2023-08-08T00:34:54;14.00;;;2.83;;
31798;SDS011;18374;51.136;3.502;2023-08-08T00:37:22;15.52;;;3.63;;
31798;SDS011;18374;51.136;3.502;2023-08-08T00:39:51;10.30;;;2.78;;
31798;SDS011;18374;51.136;3.502;2023-08-08T00:42:20;10.20;;;2.63;;
31798;SDS011;18374;51.136;3.502;2023-08-08T00:44:49;17.33;;;3.28;;
31798;SDS011;18374;51.136;3.502;2023-08-08T00:47:18;11.82;;;3.30;;
31798;SDS011;18374;51.136;3.502;2023-08-08T00:49:48;10.88;;;2.58;;
31798;SDS011;18374;51.136;3.502;2023-08-08T00:52:17;17.42;;;2.90;;
31798;SDS011;18374;51.136;3.502;2023-08-08T00:54:46;17.35;;;3.33;;
31798;SDS011;18374;51.136;3.502;2023-08-08T00:57:15;18.73;;;3.38;;
31798;SDS011;18374;51.136;3.502;2023-08-08T00:59:44;8.38;;;2.55;;
31798;SDS011;18374;51.136;3.502;2023-08-08T01:02:14;12.85;;;3.03;;
31798;SDS011;18374;51.136;3.502;2023-08-08T01:04:44;10.20;;;3.08;;
31798;SDS011;18374;51.136;3.502;2023-08-08T01:07:59;14.02;;;3.00;;
31798;SDS011;18374;51.136;3.502;2023-08-08T01:10:19;11.85;;;3.28;;
31798;SDS011;18374;51.136;3.502;2023-08-08T01:12:53;15.05;;;3.13;;
31798;SDS011;18374;51.136;3.502;2023-08-08T01:15:27;16.63;;;4.22;;
31798;SDS011;18374;51.136;3.502;2023-08-08T01:18:05;15.53;;;3.03;;
31798;SDS011;18374;51.136;3.502;2023-08-08T01:20:35;13.07;;;3.20;;
31798;SDS011;18374;51.136;3.502;2023-08-08T01:26:00;20.90;;;3.35;;
31798;SDS011;18374;51.136;3.502;2023-08-08T01:28:29;14.68;;;3.20;;
31798;SDS011;18374;51.136;3.502;2023-08-08T01:30:58;13.45;;;2.85;;
31798;SDS011;18374;51.136;3.502;2023-08-08T01:33:27;6.95;;;2.67;;
31798;SDS011;18374;51.136;3.502;2023-08-08T01:35:58;9.93;;;2.58;;
31798;SDS011;18374;51.136;3.502;2023-08-08T01:43:36;15.10;;;3.53;;
31798;SDS011;18374;51.136;3.502;2023-08-08T01:46:06;20.27;;;3.20;;
31798;SDS011;18374;51.136;3.502;2023-08-08T01:48:36;11.30;;;2.92;;
31798;SDS011;18374;51.136;3.502;2023-08-08T01:51:05;12.02;;;3.25;;
31798;SDS011;18374;51.136;3.502;2023-08-08T01:53:34;9.05;;;3.13;;
31798;SDS011;18374;51.136;3.502;2023-08-08T01:56:03;9.48;;;2.55;;
31798;SDS011;18374;51.136;3.502;2023-08-08T01:58:32;17.70;;;3.40;;
31798;SDS011;18374;51.136;3.502;2023-08-08T02:01:01;10.50;;;2.67;;
31798;SDS011;18374;51.136;3.502;2023-08-08T02:03:31;15.38;;;3.10;;
31798;SDS011;18374;51.136;3.502;2023-08-08T02:06:00;12.75;;;2.95;;
31798;SDS011;18374;51.136;3.502;2023-08-08T02:08:29;10.82;;;2.85;;
31798;SDS011;18374;51.136;3.502;2023-08-08T02:11:01;13.95;;;3.70;;
31798;SDS011;18374;51.136;3.502;2023-08-08T02:13:30;11.07;;;2.42;;
31798;SDS011;18374;51.136;3.502;2023-08-08T02:15:59;14.57;;;2.92;;
31798;SDS011;18374;51.136;3.502;2023-08-08T02:18:29;13.02;;;2.83;;
31798;SDS011;18374;51.136;3.502;2023-08-08T02:20:59;9.23;;;2.92;;
31798;SDS011;18374;51.136;3.502;2023-08-08T02:23:28;12.40;;;2.67;;
31798;SDS011;18374;51.136;3.502;2023-08-08T02:25:57;40.75;;;5.40;;
31798;SDS011;18374;51.136;3.502;2023-08-08T02:28:26;14.98;;;3.08;;
31798;SDS011;18374;51.136;3.502;2023-08-08T02:30:55;10.25;;;2.65;;
31798;SDS011;18374;51.136;3.502;2023-08-08T02:33:25;13.20;;;3.20;;
31798;SDS011;18374;51.136;3.502;2023-08-08T02:35:54;9.77;;;2.78;;
31798;SDS011;18374;51.136;3.502;2023-08-08T02:38:23;9.65;;;3.30;;
31798;SDS011;18374;51.136;3.502;2023-08-08T02:40:52;13.40;;;3.20;;
31798;SDS011;18374;51.136;3.502;2023-08-08T02:43:21;7.78;;;2.90;;
31798;SDS011;18374;51.136;3.502;2023-08-08T02:45:50;11.88;;;3.38;;
31798;SDS011;18374;51.136;3.502;2023-08-08T02:48:19;11.07;;;3.10;;
31798;SDS011;18374;51.136;3.502;2023-08-08T02:50:48;13.32;;;3.20;;
31798;SDS011;18374;51.136;3.502;2023-08-08T02:53:21;12.82;;;3.15;;
31798;SDS011;18374;51.136;3.502;2023-08-08T02:55:50;7.78;;;2.67;;
31798;SDS011;18374;51.136;3.502;2023-08-08T02:58:19;11.43;;;3.05;;
31798;SDS011;18374;51.136;3.502;2023-08-08T03:00:48;9.05;;;2.75;;
31798;SDS011;18374;51.136;3.502;2023-08-08T03:03:18;10.45;;;3.30;;
31798;SDS011;18374;51.136;3.502;2023-08-08T03:05:47;10.75;;;3.17;;
31798;SDS011;18374;51.136;3.502;2023-08-08T03:08:18;12.45;;;3.10;;
31798;SDS011;18374;51.136;3.502;2023-08-08T03:10:47;8.40;;;3.00;;
31798;SDS011;18374;51.136;3.502;2023-08-08T03:13:17;12.52;;;2.83;;
31798;SDS011;18374;51.136;3.502;2023-08-08T03:15:48;55.17;;;5.25;;
31798;SDS011;18374;51.136;3.502;2023-08-08T03:18:17;14.98;;;3.20;;
31798;SDS011;18374;51.136;3.502;2023-08-08T03:20:47;16.00;;;3.13;;
31798;SDS011;18374;51.136;3.502;2023-08-08T03:23:18;9.25;;;2.90;;
31798;SDS011;18374;51.136;3.502;2023-08-08T03:25:47;9.07;;;2.92;;
31798;SDS011;18374;51.136;3.502;2023-08-08T03:28:17;5.75;;;2.63;;
31798;SDS011;18374;51.136;3.502;2023-08-08T03:30:46;11.35;;;3.13;;
31798;SDS011;18374;51.136;3.502;2023-08-08T03:33:15;64.50;;;5.55;;
31798;SDS011;18374;51.136;3.502;2023-08-08T03:35:44;12.25;;;3.88;;
31798;SDS011;18374;51.136;3.502;2023-08-08T03:38:14;32.55;;;3.97;;
31798;SDS011;18374;51.136;3.502;2023-08-08T03:40:44;10.73;;;3.30;;
31798;SDS011;18374;51.136;3.502;2023-08-08T03:43:13;11.07;;;3.03;;
31798;SDS011;18374;51.136;3.502;2023-08-08T03:45:42;11.82;;;2.67;;
31798;SDS011;18374;51.136;3.502;2023-08-08T03:48:11;6.60;;;3.22;;
31798;SDS011;18374;51.136;3.502;2023-08-08T03:50:40;10.45;;;3.38;;
31798;SDS011;18374;51.136;3.502;2023-08-08T03:53:09;11.90;;;3.25;;
31798;SDS011;18374;51.136;3.502;2023-08-08T03:55:38;9.73;;;3.03;;
31798;SDS011;18374;51.136;3.502;2023-08-08T03:58:07;9.65;;;3.42;;
31798;SDS011;18374;51.136;3.502;2023-08-08T04:00:36;39.33;;;6.40;;
31798;SDS011;18374;51.136;3.502;2023-08-08T04:03:13;7.78;;;3.10;;
31798;SDS011;18374;51.136;3.502;2023-08-08T04:05:46;15.73;;;3.40;;
31798;SDS011;18374;51.136;3.502;2023-08-08T04:08:15;12.93;;;3.17;;
31798;SDS011;18374;51.136;3.502;2023-08-08T04:10:47;11.43;;;2.90;;
31798;SDS011;18374;51.136;3.502;2023-08-08T04:13:16;11.30;;;3.03;;
31798;SDS011;18374;51.136;3.502;2023-08-08T04:15:45;16.65;;;3.40;;
31798;SDS011;18374;51.136;3.502;2023-08-08T04:18:14;17.35;;;3.83;;
31798;SDS011;18374;51.136;3.502;2023-08-08T04:20:41;14.07;;;3.33;;
31798;SDS011;18374;51.136;3.502;2023-08-08T04:23:10;12.10;;;4.07;;
31798;SDS011;18374;51.136;3.502;2023-08-08T04:25:37;12.38;;;4.13;;
31798;SDS011;18374;51.136;3.502;2023-08-08T04:28:05;8.68;;;3.53;;
31798;SDS011;18374;51.136;3.502;2023-08-08T04:30:33;16.02;;;4.40;;
31798;SDS011;18374;51.136;3.502;2023-08-08T04:33:02;17.33;;;4.10;;
31798;SDS011;18374;51.136;3.502;2023-08-08T04:35:30;14.98;;;4.03;;
31798;SDS011;18374;51.136;3.502;2023-08-08T04:37:58;11.50;;;4.40;;
31798;SDS011;18374;51.136;3.502;2023-08-08T04:40:25;16.73;;;4.65;;
31798;SDS011;18374;51.136;3.502;2023-08-08T04:42:53;11.55;;;4.75;;
31798;SDS011;18374;51.136;3.502;2023-08-08T04:45:21;13.00;;;4.38;;
31798;SDS011;18374;51.136;3.502;2023-08-08T04:47:49;16.17;;;4.72;;
31798;SDS011;18374;51.136;3.502;2023-08-08T04:50:17;18.38;;;4.45;;
31798;SDS011;18374;51.136;3.502;2023-08-08T04:52:44;12.52;;;4.68;;
31798;SDS011;18374;51.136;3.502;2023-08-08T04:55:12;11.93;;;4.38;;
31798;SDS011;18374;51.136;3.502;2023-08-08T04:57:40;13.50;;;4.72;;
31798;SDS011;18374;51.136;3.502;2023-08-08T05:00:08;9.38;;;4.30;;
31798;SDS011;18374;51.136;3.502;2023-08-08T05:02:36;11.25;;;4.63;;
31798;SDS011;18374;51.136;3.502;2023-08-08T05:05:06;15.75;;;4.47;;
31798;SDS011;18374;51.136;3.502;2023-08-08T05:07:36;18.77;;;4.82;;
31798;SDS011;18374;51.136;3.502;2023-08-08T05:10:05;13.40;;;4.85;;
31798;SDS011;18374;51.136;3.502;2023-08-08T05:12:33;16.13;;;4.63;;
31798;SDS011;18374;51.136;3.502;2023-08-08T05:15:01;15.40;;;4.32;;
31798;SDS011;18374;51.136;3.502;2023-08-08T05:17:29;11.02;;;3.80;;
31798;SDS011;18374;51.136;3.502;2023-08-08T05:20:01;15.75;;;4.50;;
31798;SDS011;18374;51.136;3.502;2023-08-08T05:22:30;13.95;;;4.85;;
31798;SDS011;18374;51.136;3.502;2023-08-08T05:24:57;13.05;;;4.22;;
31798;SDS011;18374;51.136;3.502;2023-08-08T05:27:25;14.98;;;4.50;;
31798;SDS011;18374;51.136;3.502;2023-08-08T05:29:53;13.77;;;4.35;;
31798;SDS011;18374;51.136;3.502;2023-08-08T05:32:20;10.18;;;3.83;;
31798;SDS011;18374;51.136;3.502;2023-08-08T05:34:50;10.98;;;3.60;;
31798;SDS011;18374;51.136;3.502;2023-08-08T05:37:19;14.48;;;4.20;;
31798;SDS011;18374;51.136;3.502;2023-08-08T05:39:46;17.63;;;4.63;;
31798;SDS011;18374;51.136;3.502;2023-08-08T05:42:14;16.90;;;4.95;;
31798;SDS011;18374;51.136;3.502;2023-08-08T05:44:42;15.60;;;4.35;;
31798;SDS011;18374;51.136;3.502;2023-08-08T05:47:10;9.70;;;3.90;;
31798;SDS011;18374;51.136;3.502;2023-08-08T05:49:38;12.32;;;3.45;;
31798;SDS011;18374;51.136;3.502;2023-08-08T05:52:09;13.65;;;3.97;;
31798;SDS011;18374;51.136;3.502;2023-08-08T05:54:38;14.38;;;4.38;;
31798;SDS011;18374;51.136;3.502;2023-08-08T05:57:06;16.40;;;4.63;;
31798;SDS011;18374;51.136;3.502;2023-08-08T05:59:33;11.88;;;3.65;;
31798;SDS011;18374;51.136;3.502;2023-08-08T06:02:01;9.30;;;3.97;;
31798;SDS011;18374;51.136;3.502;2023-08-08T06:04:29;10.35;;;4.05;;
31798;SDS011;18374;51.136;3.502;2023-08-08T06:06:57;16.48;;;3.90;;
31798;SDS011;18374;51.136;3.502;2023-08-08T06:09:25;15.45;;;4.07;;
31798;SDS011;18374;51.136;3.502;2023-08-08T06:11:53;13.25;;;4.07;;
31798;SDS011;18374;51.136;3.502;2023-08-08T06:14:21;8.00;;;3.67;;
31798;SDS011;18374;51.136;3.502;2023-08-08T06:16:48;11.80;;;4.45;;
31798;SDS011;18374;51.136;3.502;2023-08-08T06:19:17;9.27;;;3.47;;
31798;SDS011;18374;51.136;3.502;2023-08-08T06:21:45;8.70;;;3.35;;
31798;SDS011;18374;51.136;3.502;2023-08-08T06:24:13;8.82;;;3.53;;
31798;SDS011;18374;51.136;3.502;2023-08-08T06:26:41;8.70;;;3.63;;
31798;SDS011;18374;51.136;3.502;2023-08-08T06:29:09;13.35;;;3.45;;
31798;SDS011;18374;51.136;3.502;2023-08-08T06:31:37;14.68;;;3.53;;
31798;SDS011;18374;51.136;3.502;2023-08-08T06:34:05;7.13;;;3.40;;
31798;SDS011;18374;51.136;3.502;2023-08-08T06:36:33;15.88;;;4.13;;
31798;SDS011;18374;51.136;3.502;2023-08-08T06:39:00;10.25;;;3.40;;
31798;SDS011;18374;51.136;3.502;2023-08-08T06:41:28;13.48;;;3.92;;
31798;SDS011;18374;51.136;3.502;2023-08-08T06:43:56;8.50;;;3.70;;
31798;SDS011;18374;51.136;3.502;2023-08-08T06:46:24;10.90;;;4.18;;
31798;SDS011;18374;51.136;3.502;2023-08-08T06:48:52;12.80;;;3.95;;
31798;SDS011;18374;51.136;3.502;2023-08-08T06:51:24;8.25;;;3.85;;
31798;SDS011;18374;51.136;3.502;2023-08-08T06:53:52;20.58;;;3.88;;
31798;SDS011;18374;51.136;3.502;2023-08-08T06:56:20;10.65;;;3.40;;
31798;SDS011;18374;51.136;3.502;2023-08-08T06:58:48;14.13;;;3.72;;
31798;SDS011;18374;51.136;3.502;2023-08-08T07:01:16;11.05;;;3.67;;
31798;SDS011;18374;51.136;3.502;2023-08-08T07:03:44;9.55;;;3.58;;
31798;SDS011;18374;51.136;3.502;2023-08-08T07:06:12;10.50;;;4.05;;
31798;SDS011;18374;51.136;3.502;2023-08-08T07:08:40;15.30;;;4.15;;
31798;SDS011;18374;51.136;3.502;2023-08-08T07:11:07;13.63;;;3.63;;
31798;SDS011;18374;51.136;3.502;2023-08-08T07:13:35;10.82;;;3.35;;
31798;SDS011;18374;51.136;3.502;2023-08-08T07:16:04;8.18;;;3.22;;
31798;SDS011;18374;51.136;3.502;2023-08-08T07:18:32;10.48;;;3.42;;
31798;SDS011;18374;51.136;3.502;2023-08-08T07:21:00;14.90;;;3.90;;
31798;SDS011;18374;51.136;3.502;2023-08-08T07:23:27;10.25;;;3.40;;
31798;SDS011;18374;51.136;3.502;2023-08-08T07:25:55;10.13;;;3.80;;
31798;SDS011;18374;51.136;3.502;2023-08-08T07:28:24;14.65;;;4.05;;
31798;SDS011;18374;51.136;3.502;2023-08-08T07:30:51;7.53;;;3.65;;
31798;SDS011;18374;51.136;3.502;2023-08-08T07:33:19;7.97;;;2.97;;
31798;SDS011;18374;51.136;3.502;2023-08-08T07:35:47;12.07;;;3.28;;
31798;SDS011;18374;51.136;3.502;2023-08-08T07:38:15;11.07;;;3.70;;
31798;SDS011;18374;51.136;3.502;2023-08-08T07:40:42;11.80;;;4.28;;
31798;SDS011;18374;51.136;3.502;2023-08-08T07:43:12;11.18;;;3.75;;
31798;SDS011;18374;51.136;3.502;2023-08-08T07:45:41;14.07;;;3.60;;
31798;SDS011;18374;51.136;3.502;2023-08-08T07:48:09;9.30;;;3.63;;
31798;SDS011;18374;51.136;3.502;2023-08-08T07:50:37;11.40;;;3.60;;
31798;SDS011;18374;51.136;3.502;2023-08-08T07:53:05;7.07;;;3.42;;
31798;SDS011;18374;51.136;3.502;2023-08-08T07:55:33;6.13;;;3.80;;
31798;SDS011;18374;51.136;3.502;2023-08-08T07:58:00;8.80;;;3.28;;
31798;SDS011;18374;51.136;3.502;2023-08-08T08:00:28;10.38;;;3.55;;
31798;SDS011;18374;51.136;3.502;2023-08-08T08:02:56;13.35;;;4.15;;
31798;SDS011;18374;51.136;3.502;2023-08-08T08:05:24;8.20;;;4.03;;
31798;SDS011;18374;51.136;3.502;2023-08-08T08:07:51;9.02;;;3.78;;
31798;SDS011;18374;51.136;3.502;2023-08-08T08:10:19;12.27;;;4.40;;
31798;SDS011;18374;51.136;3.502;2023-08-08T08:12:47;8.02;;;3.60;;
31798;SDS011;18374;51.136;3.502;2023-08-08T08:15:15;5.20;;;3.42;;
31798;SDS011;18374;51.136;3.502;2023-08-08T08:17:42;11.18;;;3.47;;
31798;SDS011;18374;51.136;3.502;2023-08-08T08:20:10;14.02;;;3.92;;
31798;SDS011;18374;51.136;3.502;2023-08-08T08:22:39;7.82;;;3.63;;
31798;SDS011;18374;51.136;3.502;2023-08-08T08:25:07;8.02;;;3.60;;
31798;SDS011;18374;51.136;3.502;2023-08-08T08:27:36;7.00;;;3.63;;
31798;SDS011;18374;51.136;3.502;2023-08-08T08:30:05;12.98;;;4.38;;
31798;SDS011;18374;51.136;3.502;2023-08-08T08:32:34;12.77;;;4.40;;
31798;SDS011;18374;51.136;3.502;2023-08-08T08:35:02;7.82;;;3.65;;
31798;SDS011;18374;51.136;3.502;2023-08-08T08:37:34;8.35;;;3.05;;
31798;SDS011;18374;51.136;3.502;2023-08-08T08:40:01;7.07;;;3.55;;
31798;SDS011;18374;51.136;3.502;2023-08-08T08:42:32;10.27;;;3.22;;
31798;SDS011;18374;51.136;3.502;2023-08-08T08:45:01;8.00;;;3.20;;
31798;SDS011;18374;51.136;3.502;2023-08-08T08:47:31;7.43;;;3.05;;
31798;SDS011;18374;51.136;3.502;2023-08-08T08:50:00;7.32;;;2.90;;
31798;SDS011;18374;51.136;3.502;2023-08-08T08:52:30;7.88;;;2.80;;
31798;SDS011;18374;51.136;3.502;2023-08-08T08:54:58;9.27;;;2.70;;
31798;SDS011;18374;51.136;3.502;2023-08-08T08:57:26;7.63;;;2.88;;
31798;SDS011;18374;51.136;3.502;2023-08-08T08:59:55;3.78;;;2.22;;
31798;SDS011;18374;51.136;3.502;2023-08-08T09:02:22;9.68;;;2.40;;
31798;SDS011;18374;51.136;3.502;2023-08-08T09:04:51;5.38;;;2.55;;
31798;SDS011;18374;51.136;3.502;2023-08-08T09:07:20;10.77;;;2.80;;
31798;SDS011;18374;51.136;3.502;2023-08-08T09:09:52;13.15;;;2.72;;
31798;SDS011;18374;51.136;3.502;2023-08-08T09:12:20;11.35;;;2.70;;
31798;SDS011;18374;51.136;3.502;2023-08-08T09:14:56;5.47;;;1.95;;
31798;SDS011;18374;51.136;3.502;2023-08-08T09:17:25;3.07;;;2.07;;
31798;SDS011;18374;51.136;3.502;2023-08-08T09:20:13;4.57;;;1.88;;
31798;SDS011;18374;51.136;3.502;2023-08-08T09:22:42;6.38;;;2.03;;
31798;SDS011;18374;51.136;3.502;2023-08-08T09:25:09;7.38;;;1.90;;
31798;SDS011;18374;51.136;3.502;2023-08-08T09:27:37;5.60;;;2.30;;
31798;SDS011;18374;51.136;3.502;2023-08-08T09:30:05;4.28;;;1.63;;
31798;SDS011;18374;51.136;3.502;2023-08-08T09:32:35;2.92;;;1.60;;
31798;SDS011;18374;51.136;3.502;2023-08-08T09:35:03;6.70;;;1.85;;
31798;SDS011;18374;51.136;3.502;2023-08-08T09:37:34;4.88;;;1.67;;
31798;SDS011;18374;51.136;3.502;2023-08-08T09:40:03;5.30;;;2.03;;
31798;SDS011;18374;51.136;3.502;2023-08-08T09:42:35;7.68;;;1.90;;
31798;SDS011;18374;51.136;3.502;2023-08-08T09:45:03;6.07;;;1.90;;
31798;SDS011;18374;51.136;3.502;2023-08-08T09:47:32;4.65;;;1.60;;
31798;SDS011;18374;51.136;3.502;2023-08-08T09:50:00;7.72;;;1.90;;
31798;SDS011;18374;51.136;3.502;2023-08-08T09:52:35;6.63;;;2.30;;
31798;SDS011;18374;51.136;3.502;2023-08-08T09:55:06;3.28;;;1.50;;
31798;SDS011;18374;51.136;3.502;2023-08-08T09:57:35;2.47;;;1.38;;
31798;SDS011;18374;51.136;3.502;2023-08-08T10:00:06;2.70;;;1.55;;
31798;SDS011;18374;51.136;3.502;2023-08-08T10:02:43;4.10;;;1.48;;
31798;SDS011;18374;51.136;3.502;2023-08-08T10:05:14;3.40;;;1.52;;
31798;SDS011;18374;51.136;3.502;2023-08-08T10:07:43;4.15;;;1.55;;
31798;SDS011;18374;51.136;3.502;2023-08-08T10:10:11;2.92;;;1.38;;
31798;SDS011;18374;51.136;3.502;2023-08-08T10:12:39;3.83;;;1.63;;
31798;SDS011;18374;51.136;3.502;2023-08-08T10:15:09;3.25;;;1.60;;
31798;SDS011;18374;51.136;3.502;2023-08-08T10:17:37;3.63;;;1.70;;
31798;SDS011;18374;51.136;3.502;2023-08-08T10:20:10;2.72;;;1.50;;
31798;SDS011;18374;51.136;3.502;2023-08-08T10:22:42;3.42;;;1.10;;
31798;SDS011;18374;51.136;3.502;2023-08-08T10:28:10;2.35;;;1.13;;
31798;SDS011;18374;51.136;3.502;2023-08-08T10:30:48;5.40;;;1.40;;
31798;SDS011;18374;51.136;3.502;2023-08-08T10:35:54;2.90;;;1.15;;
31798;SDS011;18374;51.136;3.502;2023-08-08T10:41:14;4.18;;;1.35;;
31798;SDS011;18374;51.136;3.502;2023-08-08T10:43:51;3.35;;;1.10;;
31798;SDS011;18374;51.136;3.502;2023-08-08T10:48:57;3.67;;;1.30;;
31798;SDS011;18374;51.136;3.502;2023-08-08T10:51:36;2.92;;;1.40;;
31798;SDS011;18374;51.136;3.502;2023-08-08T10:54:12;7.07;;;1.70;;
31798;SDS011;18374;51.136;3.502;2023-08-08T10:56:49;1.83;;;1.33;;
31798;SDS011;18374;51.136;3.502;2023-08-08T10:59:21;4.90;;;1.45;;
31798;SDS011;18374;51.136;3.502;2023-08-08T11:01:56;3.72;;;1.50;;
31798;SDS011;18374;51.136;3.502;2023-08-08T11:04:28;4.72;;;1.42;;
31798;SDS011;18374;51.136;3.502;2023-08-08T11:06:59;3.28;;;1.55;;
31798;SDS011;18374;51.136;3.502;2023-08-08T11:09:28;4.75;;;1.48;;
31798;SDS011;18374;51.136;3.502;2023-08-08T11:11:55;4.90;;;1.35;;
31798;SDS011;18374;51.136;3.502;2023-08-08T11:14:24;2.22;;;1.50;;
31798;SDS011;18374;51.136;3.502;2023-08-08T11:16:51;2.53;;;1.75;;
31798;SDS011;18374;51.136;3.502;2023-08-08T11:19:19;3.17;;;1.77;;
31798;SDS011;18374;51.136;3.502;2023-08-08T11:21:50;4.28;;;1.70;;
31798;SDS011;18374;51.136;3.502;2023-08-08T11:24:18;3.50;;;1.85;;
31798;SDS011;18374;51.136;3.502;2023-08-08T11:26:45;5.30;;;1.98;;
31798;SDS011;18374;51.136;3.502;2023-08-08T11:29:15;3.65;;;1.75;;
31798;SDS011;18374;51.136;3.502;2023-08-08T11:31:42;2.33;;;1.42;;
31798;SDS011;18374;51.136;3.502;2023-08-08T11:34:10;3.28;;;1.73;;
31798;SDS011;18374;51.136;3.502;2023-08-08T11:36:39;5.38;;;1.50;;
31798;SDS011;18374;51.136;3.502;2023-08-08T11:39:07;3.67;;;1.73;;
31798;SDS011;18374;51.136;3.502;2023-08-08T11:41:37;3.65;;;1.50;;
31798;SDS011;18374;51.136;3.502;2023-08-08T11:44:05;5.18;;;1.65;;
31798;SDS011;18374;51.136;3.502;2023-08-08T11:46:43;3.13;;;1.67;;
31798;SDS011;18374;51.136;3.502;2023-08-08T11:49:15;2.90;;;1.23;;
31798;SDS011;18374;51.136;3.502;2023-08-08T11:51:44;3.83;;;1.20;;
31798;SDS011;18374;51.136;3.502;2023-08-08T11:54:13;1.90;;;1.08;;
31798;SDS011;18374;51.136;3.502;2023-08-08T11:56:41;2.10;;;1.27;;
31798;SDS011;18374;51.136;3.502;2023-08-08T11:59:09;3.03;;;1.23;;
31798;SDS011;18374;51.136;3.502;2023-08-08T12:01:37;4.40;;;1.20;;
31798;SDS011;18374;51.136;3.502;2023-08-08T12:04:06;2.72;;;1.00;;
31798;SDS011;18374;51.136;3.502;2023-08-08T12:06:40;4.47;;;0.90;;
31798;SDS011;18374;51.136;3.502;2023-08-08T12:09:11;1.77;;;0.98;;
31798;SDS011;18374;51.136;3.502;2023-08-08T12:11:42;1.70;;;0.88;;
31798;SDS011;18374;51.136;3.502;2023-08-08T12:14:12;4.63;;;1.10;;
31798;SDS011;18374;51.136;3.502;2023-08-08T12:16:42;1.88;;;1.10;;
31798;SDS011;18374;51.136;3.502;2023-08-08T12:19:11;5.70;;;0.98;;
31798;SDS011;18374;51.136;3.502;2023-08-08T12:21:41;5.22;;;0.90;;
31798;SDS011;18374;51.136;3.502;2023-08-08T12:24:09;2.22;;;1.05;;
31798;SDS011;18374;51.136;3.502;2023-08-08T12:26:36;3.00;;;1.27;;
31798;SDS011;18374;51.136;3.502;2023-08-08T12:29:04;7.88;;;1.75;;
31798;SDS011;18374;51.136;3.502;2023-08-08T12:31:32;1.92;;;1.10;;
31798;SDS011;18374;51.136;3.502;2023-08-08T12:34:00;4.78;;;1.40;;
31798;SDS011;18374;51.136;3.502;2023-08-08T12:36:28;2.35;;;1.42;;
31798;SDS011;18374;51.136;3.502;2023-08-08T12:38:56;2.22;;;1.20;;
31798;SDS011;18374;51.136;3.502;2023-08-08T12:41:24;3.75;;;1.52;;
31798;SDS011;18374;51.136;3.502;2023-08-08T12:43:52;4.00;;;1.20;;
31798;SDS011;18374;51.136;3.502;2023-08-08T12:46:20;4.50;;;1.70;;
31798;SDS011;18374;51.136;3.502;2023-08-08T12:48:48;4.03;;;1.70;;
31798;SDS011;18374;51.136;3.502;2023-08-08T12:51:16;4.53;;;1.73;;
31798;SDS011;18374;51.136;3.502;2023-08-08T12:53:44;4.78;;;1.60;;
31798;SDS011;18374;51.136;3.502;2023-08-08T12:56:11;2.58;;;1.40;;
31798;SDS011;18374;51.136;3.502;2023-08-08T12:58:39;2.80;;;1.50;;
31798;SDS011;18374;51.136;3.502;2023-08-08T13:01:07;3.90;;;1.48;;
31798;SDS011;18374;51.136;3.502;2023-08-08T13:03:35;4.10;;;1.33;;
31798;SDS011;18374;51.136;3.502;2023-08-08T13:06:03;3.47;;;1.70;;
31798;SDS011;18374;51.136;3.502;2023-08-08T13:08:31;2.67;;;1.20;;
31798;SDS011;18374;51.136;3.502;2023-08-08T13:10:59;1.73;;;1.17;;
31798;SDS011;18374;51.136;3.502;2023-08-08T13:13:27;4.95;;;1.50;;
31798;SDS011;18374;51.136;3.502;2023-08-08T13:15:55;2.10;;;1.00;;
31798;SDS011;18374;51.136;3.502;2023-08-08T13:18:23;4.30;;;1.40;;
31798;SDS011;18374;51.136;3.502;2023-08-08T13:20:51;1.77;;;1.27;;
31798;SDS011;18374;51.136;3.502;2023-08-08T13:23:19;1.83;;;1.40;;
31798;SDS011;18374;51.136;3.502;2023-08-08T13:25:46;3.92;;;1.58;;
31798;SDS011;18374;51.136;3.502;2023-08-08T13:28:16;3.47;;;1.10;;
31798;SDS011;18374;51.136;3.502;2023-08-08T13:30:43;2.50;;;1.55;;
31798;SDS011;18374;51.136;3.502;2023-08-08T13:33:11;3.47;;;1.27;;
31798;SDS011;18374;51.136;3.502;2023-08-08T13:35:39;2.90;;;1.40;;
31798;SDS011;18374;51.136;3.502;2023-08-08T13:38:07;3.72;;;1.20;;
31798;SDS011;18374;51.136;3.502;2023-08-08T13:40:41;2.70;;;1.23;;
31798;SDS011;18374;51.136;3.502;2023-08-08T13:43:09;3.58;;;1.30;;
31798;SDS011;18374;51.136;3.502;2023-08-08T13:45:37;4.25;;;1.33;;
31798;SDS011;18374;51.136;3.502;2023-08-08T13:48:04;1.00;;;0.90;;
31798;SDS011;18374;51.136;3.502;2023-08-08T13:50:32;1.35;;;0.82;;
31798;SDS011;18374;51.136;3.502;2023-08-08T13:53:00;1.92;;;0.82;;
31798;SDS011;18374;51.136;3.502;2023-08-08T13:55:28;3.42;;;1.42;;
31798;SDS011;18374;51.136;3.502;2023-08-08T13:57:55;3.03;;;1.10;;
31798;SDS011;18374;51.136;3.502;2023-08-08T14:00:24;3.65;;;1.17;;
31798;SDS011;18374;51.136;3.502;2023-08-08T14:02:52;2.63;;;1.10;;
31798;SDS011;18374;51.136;3.502;2023-08-08T14:05:19;1.92;;;0.88;;
31798;SDS011;18374;51.136;3.502;2023-08-08T14:07:47;2.78;;;1.40;;
31798;SDS011;18374;51.136;3.502;2023-08-08T14:10:15;2.78;;;1.05;;
31798;SDS011;18374;51.136;3.502;2023-08-08T14:12:43;1.85;;;1.00;;
31798;SDS011;18374;51.136;3.502;2023-08-08T14:15:10;4.15;;;1.20;;
31798;SDS011;18374;51.136;3.502;2023-08-08T14:17:38;2.67;;;1.27;;
31798;SDS011;18374;51.136;3.502;2023-08-08T14:20:06;5.78;;;1.40;;
31798;SDS011;18374;51.136;3.502;2023-08-08T14:22:35;4.28;;;1.42;;
31798;SDS011;18374;51.136;3.502;2023-08-08T14:25:03;1.63;;;1.50;;
31798;SDS011;18374;51.136;3.502;2023-08-08T14:27:33;1.90;;;1.42;;
31798;SDS011;18374;51.136;3.502;2023-08-08T14:30:01;3.17;;;1.50;;
31798;SDS011;18374;51.136;3.502;2023-08-08T14:32:31;4.35;;;1.38;;
31798;SDS011;18374;51.136;3.502;2023-08-08T14:34:59;3.45;;;1.50;;
31798;SDS011;18374;51.136;3.502;2023-08-08T14:37:29;8.45;;;1.85;;
31798;SDS011;18374;51.136;3.502;2023-08-08T14:39:57;3.45;;;1.58;;
31798;SDS011;18374;51.136;3.502;2023-08-08T14:42:25;3.10;;;1.70;;
31798;SDS011;18374;51.136;3.502;2023-08-08T14:44:53;3.38;;;1.80;;
31798;SDS011;18374;51.136;3.502;2023-08-08T14:47:21;4.22;;;1.58;;
31798;SDS011;18374;51.136;3.502;2023-08-08T14:49:48;2.13;;;1.40;;
31798;SDS011;18374;51.136;3.502;2023-08-08T14:52:17;6.80;;;1.83;;
31798;SDS011;18374;51.136;3.502;2023-08-08T14:54:45;2.75;;;1.85;;
31798;SDS011;18374;51.136;3.502;2023-08-08T14:57:13;2.75;;;1.90;;
31798;SDS011;18374;51.136;3.502;2023-08-08T14:59:41;3.42;;;2.20;;
31798;SDS011;18374;51.136;3.502;2023-08-08T15:02:09;5.47;;;2.17;;
31798;SDS011;18374;51.136;3.502;2023-08-08T15:04:36;5.65;;;2.35;;
31798;SDS011;18374;51.136;3.502;2023-08-08T15:07:04;5.78;;;2.10;;
31798;SDS011;18374;51.136;3.502;2023-08-08T15:09:32;5.00;;;2.05;;